createdAt,value
2019-01-27T00:00:49.205Z,6.36
2019-01-27T00:03:18.812Z,6.31
2019-01-27T00:05:47.983Z,6.35
2019-01-27T00:08:17.405Z,6.42
2019-01-27T00:10:46.675Z,6.36
2019-01-27T00:13:15.853Z,6.39
2019-01-27T00:15:45.261Z,6.41
2019-01-27T00:18:14.819Z,6.33
2019-01-27T00:20:44.043Z,6.37
2019-01-27T00:23:13.548Z,6.39
2019-01-27T00:25:43.045Z,6.48
2019-01-27T00:28:12.342Z,6.42
2019-01-27T00:30:41.627Z,6.37
2019-01-27T00:33:10.796Z,6.34
2019-01-27T00:35:40.252Z,6.39
2019-01-27T00:38:09.426Z,6.39
2019-01-27T00:40:38.661Z,6.34
2019-01-27T00:43:08.142Z,6.31
2019-01-27T00:45:37.379Z,6.24
2019-01-27T00:48:07.260Z,6.23
2019-01-27T00:50:36.414Z,6.19
2019-01-27T00:53:05.711Z,6.16
2019-01-27T00:55:35.164Z,6.19
2019-01-27T00:58:04.319Z,6.12
2019-01-27T01:00:33.660Z,6.12
2019-01-27T01:03:02.794Z,6.08
2019-01-27T01:05:31.933Z,6.11
2019-01-27T01:08:01.089Z,6.11
2019-01-27T01:10:30.715Z,6.08
2019-01-27T01:12:59.953Z,6.10
2019-01-27T01:15:29.160Z,6.09
2019-01-27T01:17:58.349Z,6.03
2019-01-27T01:20:27.602Z,6.03
2019-01-27T01:22:56.843Z,6.03
2019-01-27T01:25:26.070Z,6.00
2019-01-27T01:27:55.254Z,5.99
2019-01-27T01:30:27.181Z,6.02
2019-01-27T01:32:56.837Z,6.07
2019-01-27T01:35:26.139Z,6.08
2019-01-27T01:37:55.378Z,6.10
2019-01-27T01:40:24.858Z,6.09
2019-01-27T01:42:54.378Z,6.12
2019-01-27T01:45:26.837Z,6.09
2019-01-27T01:47:55.983Z,6.17
2019-01-27T01:50:26.153Z,6.15
2019-01-27T01:52:55.317Z,6.12
2019-01-27T01:55:24.533Z,6.07
2019-01-27T01:57:53.814Z,6.13
2019-01-27T02:00:23.855Z,6.10
2019-01-27T02:02:53.410Z,5.99
2019-01-27T02:05:22.810Z,6.02
2019-01-27T02:07:52.281Z,5.96
2019-01-27T02:10:21.957Z,5.97
2019-01-27T02:12:52.222Z,5.97
2019-01-27T02:15:59.673Z,5.96
2019-01-27T02:18:29.092Z,5.98
2019-01-27T02:20:58.338Z,6.03
2019-01-27T02:23:27.508Z,6.01
2019-01-27T02:25:57.043Z,6.06
2019-01-27T02:28:26.396Z,6.08
2019-01-27T02:30:55.822Z,6.08
2019-01-27T02:33:27.070Z,6.12
2019-01-27T02:35:56.644Z,6.11
2019-01-27T02:38:25.908Z,6.13
2019-01-27T02:40:55.082Z,6.20
2019-01-27T02:43:24.590Z,6.15
2019-01-27T02:45:54.196Z,6.17
2019-01-27T02:48:23.392Z,6.16
2019-01-27T02:50:52.909Z,6.13
2019-01-27T02:53:22.197Z,6.19
2019-01-27T02:55:51.763Z,6.09
2019-01-27T02:58:21.223Z,6.08
2019-01-27T03:00:51.402Z,6.16
2019-01-27T03:03:20.569Z,6.15
2019-01-27T03:05:56.434Z,6.16
2019-01-27T03:08:25.859Z,6.20
2019-01-27T03:10:55.027Z,6.24
2019-01-27T03:13:24.383Z,6.23
2019-01-27T03:15:53.548Z,6.24
2019-01-27T03:18:22.881Z,6.29
2019-01-27T03:20:52.754Z,6.23
2019-01-27T03:23:22.237Z,6.23
2019-01-27T03:25:52.034Z,6.23
2019-01-27T03:28:21.200Z,6.21
2019-01-27T03:30:50.369Z,6.25
2019-01-27T03:33:19.941Z,6.23
2019-01-27T03:35:49.098Z,6.19
2019-01-27T03:38:18.672Z,6.16
2019-01-27T03:40:47.838Z,6.21
2019-01-27T03:43:17.008Z,6.25
2019-01-27T03:45:46.205Z,6.25
2019-01-27T03:48:15.809Z,6.23
2019-01-27T03:50:45.130Z,6.25
2019-01-27T03:53:14.672Z,6.23
2019-01-27T03:55:44.159Z,6.20
2019-01-27T03:58:13.352Z,6.16
2019-01-27T04:00:42.542Z,6.21
2019-01-27T04:03:12.128Z,6.21
2019-01-27T04:05:41.312Z,6.24
2019-01-27T04:08:11.024Z,6.27
2019-01-27T04:10:40.454Z,6.20
2019-01-27T04:13:09.814Z,6.19
2019-01-27T04:15:39.026Z,6.25
2019-01-27T04:18:08.485Z,6.20
2019-01-27T04:20:37.687Z,6.20
2019-01-27T04:23:07.322Z,6.25
2019-01-27T04:25:37.242Z,6.22
2019-01-27T04:28:06.430Z,6.26
2019-01-27T04:30:37.737Z,6.27
2019-01-27T04:33:06.952Z,6.21
2019-01-27T04:35:36.098Z,6.22
2019-01-27T04:38:05.528Z,6.25
2019-01-27T04:40:34.688Z,6.26
2019-01-27T04:43:03.892Z,6.27
2019-01-27T04:45:35.453Z,6.32
2019-01-27T04:48:05.820Z,6.35
2019-01-27T04:50:35.369Z,6.34
2019-01-27T04:53:05.014Z,6.36
2019-01-27T04:55:35.800Z,6.44
2019-01-27T04:58:05.568Z,6.38
2019-01-27T05:00:34.929Z,6.33
2019-01-27T05:03:23.207Z,6.42
2019-01-27T05:05:52.407Z,6.40
2019-01-27T05:08:23.271Z,6.41
2019-01-27T05:10:52.518Z,6.40
2019-01-27T05:13:22.809Z,6.40
2019-01-27T05:15:52.921Z,6.39
2019-01-27T05:18:23.777Z,6.38
2019-01-27T05:20:53.105Z,6.36
2019-01-27T05:23:22.709Z,6.40
2019-01-27T05:25:52.190Z,6.38
2019-01-27T05:28:21.372Z,6.41
2019-01-27T05:30:50.594Z,6.39
2019-01-27T05:33:20.503Z,6.43
2019-01-27T05:35:50.012Z,6.41
2019-01-27T05:38:19.508Z,6.38
2019-01-27T05:40:48.718Z,6.40
2019-01-27T05:43:18.242Z,6.39
2019-01-27T05:45:47.731Z,6.38
2019-01-27T05:48:17.443Z,6.37
2019-01-27T05:50:46.600Z,6.36
2019-01-27T05:53:15.896Z,6.30
2019-01-27T05:55:45.056Z,6.31
2019-01-27T05:58:14.242Z,6.38
2019-01-27T06:00:45.250Z,6.33
2019-01-27T06:05:47.062Z,6.40
2019-01-27T06:08:16.222Z,6.40
2019-01-27T06:10:45.365Z,6.44
2019-01-27T06:13:15.079Z,6.48
2019-01-27T06:15:44.640Z,6.41
2019-01-27T06:18:13.830Z,6.37
2019-01-27T06:20:42.977Z,6.37
2019-01-27T06:23:12.710Z,6.39
2019-01-27T06:25:42.218Z,6.37
2019-01-27T06:28:11.398Z,6.38
2019-01-27T06:30:40.662Z,6.34
2019-01-27T06:33:28.770Z,6.37
2019-01-27T06:35:57.934Z,6.38
2019-01-27T06:38:27.276Z,6.34
2019-01-27T06:40:56.428Z,6.35
2019-01-27T06:43:25.662Z,6.30
2019-01-27T06:45:55.254Z,6.37
2019-01-27T06:48:24.724Z,6.31
2019-01-27T06:50:54.243Z,6.24
2019-01-27T06:53:23.802Z,6.28
2019-01-27T06:55:52.943Z,6.35
2019-01-27T06:58:23.973Z,6.26
2019-01-27T07:00:59.530Z,6.29
2019-01-27T07:03:32.357Z,6.30
2019-01-27T07:06:20.511Z,6.30
2019-01-27T07:09:08.927Z,6.30
2019-01-27T07:11:52.681Z,6.31
2019-01-27T07:14:49.895Z,6.32
2019-01-27T07:17:37.988Z,6.33
2019-01-27T07:20:21.087Z,6.27
2019-01-27T07:23:00.453Z,6.30
2019-01-27T07:25:49.342Z,6.36
2019-01-27T07:28:26.803Z,6.38
2019-01-27T07:31:16.585Z,6.30
2019-01-27T07:34:05.441Z,6.35
2019-01-27T07:36:56.430Z,6.29
2019-01-27T07:39:30.504Z,6.32
2019-01-27T07:42:13.021Z,6.36
2019-01-27T07:45:09.968Z,6.32
2019-01-27T07:47:44.987Z,6.28
2019-01-27T07:50:40.200Z,6.29
2019-01-27T07:53:46.616Z,6.27
2019-01-27T07:56:41.481Z,6.28
2019-01-27T07:59:28.462Z,6.32
2019-01-27T08:02:26.069Z,6.29
2019-01-27T08:05:17.648Z,6.28
2019-01-27T08:08:05.352Z,6.30
2019-01-27T08:11:03.101Z,6.32
2019-01-27T08:13:45.228Z,6.42
2019-01-27T08:16:23.776Z,6.40
2019-01-27T08:19:08.272Z,6.38
2019-01-27T08:21:59.364Z,6.37
2019-01-27T08:24:54.031Z,6.36
2019-01-27T08:27:48.285Z,6.32
2019-01-27T08:30:40.704Z,6.44
2019-01-27T08:33:26.174Z,6.43
2019-01-27T08:36:05.488Z,6.48
2019-01-27T08:38:52.274Z,6.45
2019-01-27T08:41:28.740Z,6.42
2019-01-27T08:44:15.837Z,6.44
2019-01-27T08:46:52.531Z,6.44
2019-01-27T08:49:21.725Z,6.47
2019-01-27T08:51:51.248Z,6.47
2019-01-27T08:54:20.688Z,6.56
2019-01-27T08:56:49.893Z,6.63
2019-01-27T08:59:19.452Z,6.68
2019-01-27T09:02:10.407Z,6.77
2019-01-27T09:04:48.012Z,6.71
2019-01-27T09:07:33.068Z,6.82
2019-01-27T09:10:09.175Z,6.83
2019-01-27T09:13:00.291Z,6.83
2019-01-27T09:15:51.455Z,6.85
2019-01-27T09:18:52.133Z,6.82
2019-01-27T09:21:38.840Z,6.83
2019-01-27T09:24:20.451Z,6.83
2019-01-27T09:26:55.150Z,6.78
2019-01-27T09:29:41.910Z,6.75
2019-01-27T09:32:48.467Z,6.75
2019-01-27T09:35:28.659Z,6.73
2019-01-27T09:38:16.928Z,6.74
2019-01-27T09:41:08.376Z,6.75
2019-01-27T09:43:55.830Z,6.83
2019-01-27T09:46:39.855Z,6.90
2019-01-27T09:49:18.138Z,6.96
2019-01-27T09:51:56.946Z,6.96
2019-01-27T09:54:51.708Z,6.95
2019-01-27T09:57:41.876Z,7.02
2019-01-27T10:00:32.573Z,7.06
2019-01-27T10:03:07.594Z,7.00
2019-01-27T10:05:58.360Z,6.98
2019-01-27T10:08:45.118Z,7.03
2019-01-27T10:11:51.934Z,6.97
2019-01-27T10:14:38.209Z,6.91
2019-01-27T10:17:28.443Z,6.88
2019-01-27T10:20:19.660Z,6.91
2019-01-27T10:23:14.662Z,6.92
2019-01-27T10:25:50.824Z,6.90
2019-01-27T10:28:37.952Z,6.92
2019-01-27T10:31:26.495Z,6.91
2019-01-27T10:34:22.657Z,6.87
2019-01-27T10:37:16.557Z,6.88
2019-01-27T10:40:14.076Z,6.99
2019-01-27T10:43:02.516Z,7.07
2019-01-27T10:45:41.078Z,7.19
2019-01-27T10:48:20.209Z,7.08
2019-01-27T10:51:13.772Z,6.98
2019-01-27T10:53:52.010Z,6.94
2019-01-27T10:56:35.127Z,6.94
2019-01-27T10:59:21.182Z,6.93
2019-01-27T11:02:24.332Z,7.01
2019-01-27T11:05:11.592Z,7.06
2019-01-27T11:08:09.313Z,7.01
2019-01-27T11:11:01.101Z,6.95
2019-01-27T11:14:04.814Z,6.90
2019-01-27T11:16:42.966Z,6.87
2019-01-27T11:19:34.485Z,6.79
2019-01-27T11:22:32.111Z,6.82
2019-01-27T11:25:20.249Z,6.72
2019-01-27T11:28:14.508Z,6.76
2019-01-27T11:31:11.753Z,6.76
2019-01-27T11:33:59.194Z,6.68
2019-01-27T11:36:59.605Z,6.59
2019-01-27T11:39:47.740Z,6.61
2019-01-27T11:42:34.984Z,6.68
2019-01-27T11:45:16.527Z,6.71
2019-01-27T11:47:51.653Z,6.75
2019-01-27T11:50:36.936Z,6.90
2019-01-27T11:53:08.843Z,6.99
2019-01-27T11:55:38.360Z,7.09
2019-01-27T11:58:07.549Z,7.30
2019-01-27T12:00:44.515Z,7.26
2019-01-27T12:03:13.709Z,7.40
2019-01-27T12:05:43.179Z,7.44
2019-01-27T12:08:12.391Z,7.53
2019-01-27T12:10:41.770Z,7.63
2019-01-27T12:13:10.887Z,7.68
2019-01-27T12:15:40.448Z,7.69
2019-01-27T12:18:09.758Z,7.50
2019-01-27T12:20:40.772Z,7.45
2019-01-27T12:23:10.308Z,7.45
2019-01-27T12:25:39.459Z,7.47
2019-01-27T12:28:08.715Z,7.53
2019-01-27T12:30:38.102Z,7.32
2019-01-27T12:33:07.295Z,7.24
2019-01-27T12:35:36.515Z,7.30
2019-01-27T12:38:05.941Z,7.39
2019-01-27T12:40:35.172Z,7.34
2019-01-27T12:43:04.391Z,7.36
2019-01-27T12:45:33.679Z,7.10
2019-01-27T12:48:03.039Z,6.89
2019-01-27T12:50:32.531Z,6.90
2019-01-27T12:53:03.857Z,6.93
2019-01-27T12:55:33.048Z,6.79
2019-01-27T12:58:02.271Z,6.84
2019-01-27T13:00:34.602Z,6.93
2019-01-27T13:03:03.915Z,6.95
2019-01-27T13:05:33.339Z,7.19
2019-01-27T13:08:02.884Z,7.06
2019-01-27T13:10:32.349Z,7.37
2019-01-27T13:13:01.603Z,7.44
2019-01-27T13:15:31.036Z,7.51
2019-01-27T13:18:00.528Z,7.45
2019-01-27T13:20:29.698Z,7.26
2019-01-27T13:22:58.860Z,7.26
2019-01-27T13:25:28.224Z,6.88
2019-01-27T13:27:57.414Z,6.83
2019-01-27T13:30:26.624Z,6.60
2019-01-27T13:32:55.863Z,6.65
2019-01-27T13:35:25.141Z,6.51
2019-01-27T13:37:54.297Z,6.57
2019-01-27T13:40:23.522Z,6.45
2019-01-27T13:42:53.096Z,6.41
2019-01-27T13:45:25.032Z,6.43
2019-01-27T13:47:58.969Z,6.38
2019-01-27T13:50:26.226Z,6.35
2019-01-27T13:52:55.916Z,6.42
2019-01-27T13:55:27.193Z,6.35
2019-01-27T13:57:56.470Z,6.30
2019-01-27T14:00:31.059Z,6.24
2019-01-27T14:03:00.587Z,6.25
2019-01-27T14:05:30.193Z,6.28
2019-01-27T14:08:00.826Z,6.13
2019-01-27T14:10:30.846Z,6.17
2019-01-27T14:12:59.965Z,6.04
2019-01-27T14:15:31.248Z,5.85
2019-01-27T14:18:00.415Z,5.87
2019-01-27T14:20:30.004Z,5.83
2019-01-27T14:22:59.507Z,5.82
2019-01-27T14:25:29.664Z,5.66
2019-01-27T14:27:59.331Z,5.63
2019-01-27T14:30:30.776Z,5.60
2019-01-27T14:33:00.365Z,5.57
2019-01-27T14:35:29.532Z,5.42
2019-01-27T14:37:59.226Z,5.44
2019-01-27T14:40:30.730Z,5.32
2019-01-27T14:43:00.962Z,5.12
2019-01-27T14:45:31.241Z,5.08
2019-01-27T14:48:00.547Z,5.00
2019-01-27T14:50:31.935Z,5.01
2019-01-27T14:53:03.129Z,5.14
2019-01-27T14:55:32.637Z,5.17
2019-01-27T14:58:02.151Z,5.18
2019-01-27T15:00:36.404Z,5.10
2019-01-27T15:03:05.573Z,5.02
2019-01-27T15:05:34.755Z,5.12
2019-01-27T15:08:04.014Z,5.07
2019-01-27T15:10:33.646Z,5.10
2019-01-27T15:13:03.059Z,5.11
2019-01-27T15:15:32.274Z,5.01
2019-01-27T15:18:01.748Z,5.00
2019-01-27T15:20:33.642Z,5.03
2019-01-27T15:23:03.053Z,5.05
2019-01-27T15:25:32.407Z,5.04
2019-01-27T15:28:03.456Z,5.06
2019-01-27T15:30:33.346Z,5.04
2019-01-27T15:33:02.551Z,5.11
2019-01-27T15:35:32.171Z,5.04
2019-01-27T15:38:01.340Z,4.95
2019-01-27T15:40:30.655Z,4.83
2019-01-27T15:42:59.854Z,4.87
2019-01-27T15:45:29.742Z,4.86
2019-01-27T15:47:59.403Z,4.74
2019-01-27T15:50:31.473Z,4.64
2019-01-27T15:53:00.757Z,4.57
2019-01-27T15:55:29.920Z,4.52
2019-01-27T15:57:59.589Z,4.46
2019-01-27T16:00:30.209Z,4.44
2019-01-27T16:02:59.363Z,4.42
2019-01-27T16:05:28.903Z,4.35
2019-01-27T16:07:58.454Z,4.26
2019-01-27T16:10:27.898Z,4.19
2019-01-27T16:12:57.351Z,4.07
2019-01-27T16:15:31.140Z,4.03
2019-01-27T16:18:00.549Z,3.93
2019-01-27T16:20:29.970Z,3.98
2019-01-27T16:23:18.315Z,3.90
2019-01-27T16:25:47.675Z,3.89
2019-01-27T16:28:18.318Z,3.96
2019-01-27T16:31:05.176Z,4.11
2019-01-27T16:33:42.652Z,4.13
2019-01-27T16:36:12.628Z,4.13
2019-01-27T16:38:41.820Z,4.09
2019-01-27T16:41:10.962Z,4.13
2019-01-27T16:43:40.138Z,4.17
2019-01-27T16:46:09.683Z,4.15
2019-01-27T16:48:38.916Z,4.14
2019-01-27T16:51:08.482Z,4.12
2019-01-27T16:53:37.986Z,4.07
2019-01-27T16:56:07.169Z,4.03
2019-01-27T16:58:36.600Z,4.02
2019-01-27T17:01:06.396Z,4.05
2019-01-27T17:03:36.261Z,4.09
2019-01-27T17:06:05.530Z,4.22
2019-01-27T17:08:34.758Z,4.18
2019-01-27T17:11:03.964Z,4.19
2019-01-27T17:13:33.095Z,4.21
2019-01-27T17:16:02.749Z,4.41
2019-01-27T17:18:31.914Z,4.39
2019-01-27T17:21:01.213Z,4.34
2019-01-27T17:23:32.260Z,4.36
2019-01-27T17:26:01.560Z,4.41
2019-01-27T17:28:31.073Z,4.44
2019-01-27T17:31:00.260Z,4.42
2019-01-27T17:33:29.483Z,4.47
2019-01-27T17:35:58.742Z,4.44
2019-01-27T17:38:27.945Z,4.43
2019-01-27T17:40:57.346Z,4.44
2019-01-27T17:43:26.991Z,4.41
2019-01-27T17:45:56.524Z,4.39
2019-01-27T17:48:25.733Z,4.42
2019-01-27T17:50:55.148Z,4.41
2019-01-27T17:53:24.481Z,4.34
2019-01-27T17:55:54.008Z,4.29
2019-01-27T17:58:54.298Z,4.36
2019-01-27T18:01:48.334Z,4.34
2019-01-27T18:04:35.549Z,4.31
2019-01-27T18:07:23.176Z,4.25
2019-01-27T18:10:14.566Z,4.11
2019-01-27T18:12:49.075Z,4.16
2019-01-27T18:15:18.260Z,4.00
2019-01-27T18:17:47.857Z,3.93
2019-01-27T18:20:17.572Z,3.92
2019-01-27T18:22:46.735Z,3.84
2019-01-27T18:25:16.767Z,3.79
2019-01-27T18:27:45.932Z,3.83
2019-01-27T18:30:21.243Z,3.81
2019-01-27T18:32:50.518Z,3.78
2019-01-27T18:35:20.516Z,3.75
2019-01-27T18:37:50.050Z,3.63
2019-01-27T18:40:19.228Z,3.64
2019-01-27T18:42:49.766Z,3.61
2019-01-27T18:45:19.400Z,3.58
2019-01-27T18:47:48.564Z,3.55
2019-01-27T18:50:19.256Z,3.46
2019-01-27T18:52:50.886Z,3.43
2019-01-27T18:55:48.722Z,3.45
2019-01-27T18:58:34.640Z,3.39
2019-01-27T19:01:35.976Z,3.45
2019-01-27T19:04:24.548Z,3.45
2019-01-27T19:07:16.661Z,3.52
2019-01-27T19:10:04.151Z,3.52
2019-01-27T19:12:56.238Z,3.57
2019-01-27T19:15:42.058Z,3.57
2019-01-27T19:18:22.558Z,3.59
2019-01-27T19:21:29.348Z,3.54
2019-01-27T19:24:22.212Z,3.51
2019-01-27T19:27:06.438Z,3.40
2019-01-27T19:29:54.096Z,3.36
2019-01-27T19:32:30.632Z,3.33
2019-01-27T19:35:31.085Z,3.45
2019-01-27T19:38:22.691Z,3.47
2019-01-27T19:41:08.562Z,3.59
2019-01-27T19:43:57.624Z,3.66
2019-01-27T19:46:47.510Z,3.66
2019-01-27T19:49:29.622Z,3.69
2019-01-27T19:52:04.669Z,3.61
2019-01-27T19:54:48.735Z,3.60
2019-01-27T19:57:49.948Z,3.64
2019-01-27T20:00:27.809Z,3.52
2019-01-27T20:03:28.344Z,3.34
2019-01-27T20:06:16.139Z,3.22
2019-01-27T20:09:11.632Z,3.22
2019-01-27T20:12:03.129Z,3.23
2019-01-27T20:15:10.129Z,3.17
2019-01-27T20:18:03.151Z,3.01
2019-01-27T20:20:50.270Z,2.93
2019-01-27T20:23:37.407Z,2.83
2019-01-27T20:26:38.287Z,2.77
2019-01-27T20:29:19.668Z,2.71
2019-01-27T20:32:04.560Z,2.62
2019-01-27T20:34:53.140Z,2.55
2019-01-27T20:37:35.592Z,2.52
2019-01-27T20:40:31.811Z,2.65
2019-01-27T20:43:08.856Z,2.81
2019-01-27T20:45:53.683Z,2.82
2019-01-27T20:48:48.683Z,2.97
2019-01-27T20:51:37.825Z,2.89
2019-01-27T20:54:23.779Z,2.92
2019-01-27T20:57:06.708Z,2.89
2019-01-27T20:59:57.906Z,2.85
2019-01-27T21:02:39.726Z,2.82
2019-01-27T21:05:27.762Z,2.89
2019-01-27T21:08:19.354Z,2.86
2019-01-27T21:11:08.255Z,2.83
2019-01-27T21:13:44.388Z,2.75
2019-01-27T21:16:38.628Z,2.72
2019-01-27T21:19:15.164Z,2.76
2019-01-27T21:21:45.131Z,2.78
2019-01-27T21:24:14.708Z,2.79
2019-01-27T21:26:44.173Z,2.84
2019-01-27T21:29:13.585Z,2.94
2019-01-27T21:31:43.120Z,2.96
2019-01-27T21:34:12.607Z,3.01
2019-01-27T21:36:41.834Z,3.05
2019-01-27T21:39:12.591Z,3.12
2019-01-27T21:41:42.260Z,3.19
2019-01-27T21:44:11.806Z,3.29
2019-01-27T21:46:41.353Z,3.32
2019-01-27T21:49:10.514Z,3.34
2019-01-27T21:51:40.095Z,3.42
2019-01-27T21:54:09.259Z,3.40
2019-01-27T21:56:39.669Z,3.46
2019-01-27T21:59:08.862Z,3.45
2019-01-27T22:01:39.499Z,3.51
2019-01-27T22:04:09.035Z,3.51
2019-01-27T22:06:38.615Z,3.55
2019-01-27T22:09:09.586Z,3.52
2019-01-27T22:11:38.826Z,3.55
2019-01-27T22:14:08.212Z,3.54
2019-01-27T22:16:39.184Z,3.54
2019-01-27T22:19:10.578Z,3.58
2019-01-27T22:21:40.306Z,3.63
2019-01-27T22:24:09.445Z,3.61
2019-01-27T22:26:38.664Z,3.68
2019-01-27T22:29:08.532Z,3.70
2019-01-27T22:31:37.713Z,3.69
2019-01-27T22:34:06.946Z,3.70
2019-01-27T22:36:36.120Z,3.66
2019-01-27T22:39:08.314Z,3.75
2019-01-27T22:41:37.596Z,3.77
2019-01-27T22:44:06.785Z,3.75
2019-01-27T22:46:36.277Z,3.81
2019-01-27T22:49:06.319Z,3.72
2019-01-27T22:51:35.650Z,3.75
2019-01-27T22:54:05.326Z,3.73
2019-01-27T22:56:34.785Z,3.74
2019-01-27T22:59:03.966Z,3.81
2019-01-27T23:04:23.400Z,3.73
2019-01-27T23:06:52.590Z,3.74
2019-01-27T23:09:22.316Z,3.82
2019-01-27T23:11:52.067Z,3.84
2019-01-27T23:14:21.477Z,3.78
2019-01-27T23:16:50.657Z,3.77
2019-01-27T23:19:19.848Z,3.79
2019-01-27T23:21:49.109Z,3.82
2019-01-27T23:24:18.544Z,3.78
2019-01-27T23:26:47.865Z,3.76
2019-01-27T23:29:17.038Z,3.78
2019-01-27T23:31:46.204Z,3.80
2019-01-27T23:34:16.156Z,3.82
2019-01-27T23:36:47.185Z,3.73
2019-01-27T23:39:16.363Z,3.77
2019-01-27T23:41:45.582Z,3.84
2019-01-27T23:44:15.117Z,3.82
2019-01-27T23:46:44.297Z,3.78
2019-01-27T23:49:13.964Z,3.74
2019-01-27T23:51:43.615Z,3.74
2019-01-27T23:54:12.811Z,3.77
2019-01-27T23:56:42.320Z,3.81
2019-01-27T23:59:12.155Z,3.85
